Time;durP1;ratioP1;P1;durP2;ratioP2;P2;SDS_P1;SDS_P2;PMS_P1;PMS_P2;Temp;Humidity;BMP_temperature;BMP_pressure;BME280_temperature;BME280_humidity;BME280_pressure;Samples;Min_cycle;Max_cycle;Signal;HPM_P1;HPM_P2
2022/01/08 00:00:29;;;;;;;;;;;;;;;0.04;85.77;96008.84;5054341;28;19959;-75
2022/01/08 00:02:55;;;;;;;;;;;;;;;0.06;85.47;95994.03;5062244;28;20378;-75
2022/01/08 00:05:21;;;;;;;;;;;;;;;0.04;85.36;95980.50;5060564;28;19968;-76
2022/01/08 00:07:47;;;;;;;;;;;;;;;0.05;85.33;95969.22;5047565;28;19962;-75
2022/01/08 00:10:13;;;;;;;;;;;;;;;0.06;85.32;95975.97;5050221;28;19962;-74
2022/01/08 00:12:39;;;;;;;;;;;;;;;0.08;85.96;95973.25;5057217;28;19966;-75
2022/01/08 00:15:07;;;;;;;;;;;;;;;0.11;85.74;95966.00;5055322;28;19955;-75
2022/01/08 00:17:33;;;;;;;;;;;;;;;0.12;85.77;95965.00;5054125;28;19964;-75
2022/01/08 00:19:59;;;;;;;;;;;;;;;0.16;86.05;95957.75;5051246;28;19985;-75
2022/01/08 00:22:25;;;;;;;;;;;;;;;0.22;86.28;95958.88;5063003;28;20473;-77
2022/01/08 00:24:52;;;;;;;;;;;;;;;0.25;86.14;95950.81;5059932;28;19961;-77
2022/01/08 00:27:19;;;;;;;;;;;;;;;0.25;84.96;95945.66;5047914;28;19952;-75
2022/01/08 00:29:45;;;;;;;;;;;;;;;0.25;85.53;95948.22;5056929;28;19956;-76
2022/01/08 00:32:11;;;;;;;;;;;;;;;0.24;85.56;95954.38;5053290;28;20017;-75
2022/01/08 00:34:36;;;;;;;;;;;;;;;0.27;85.57;95952.25;5059265;28;19963;-78
2022/01/08 00:37:02;;;;;;;;;;;;;;;0.24;84.95;95937.13;5062535;28;19955;-75
2022/01/08 00:39:28;;;;;;;;;;;;;;;0.20;85.40;95935.84;5048620;28;19966;-75
2022/01/08 00:41:54;;;;;;;;;;;;;;;0.17;85.52;95931.81;5050743;28;20340;-75
2022/01/08 00:44:20;;;;;;;;;;;;;;;0.19;85.80;95940.19;5061403;28;20295;-74
2022/01/08 00:46:47;;;;;;;;;;;;;;;0.23;85.83;95930.34;5044633;28;19968;-76
2022/01/08 00:49:13;;;;;;;;;;;;;;;0.26;85.93;95929.22;5036164;28;19958;-74
2022/01/08 00:51:38;;;;;;;;;;;;;;;0.29;86.17;95910.81;5044424;28;19991;-75
2022/01/08 00:54:05;;;;;;;;;;;;;;;0.32;85.71;95910.50;5062351;28;20417;-74
2022/01/08 00:56:30;;;;;;;;;;;;;;;0.35;85.92;95912.72;5057603;28;19964;-74
2022/01/08 00:58:56;;;;;;;;;;;;;;;0.37;85.41;95908.22;5071089;28;20303;-75
2022/01/08 01:01:22;;;;;;;;;;;;;;;0.33;85.28;95910.31;5046451;28;20344;-74
2022/01/08 01:03:48;;;;;;;;;;;;;;;0.34;85.41;95906.78;5049961;28;19996;-75
2022/01/08 01:06:14;;;;;;;;;;;;;;;0.34;85.33;95899.03;5059908;28;20319;-75
2022/01/08 01:08:40;;;;;;;;;;;;;;;0.37;85.90;95887.59;5058039;28;19963;-76
2022/01/08 01:11:06;;;;;;;;;;;;;;;0.36;84.70;95884.22;5055894;28;19974;-75
2022/01/08 01:13:32;;;;;;;;;;;;;;;0.32;85.03;95876.97;5055338;28;19955;-76
2022/01/08 01:15:58;;;;;;;;;;;;;;;0.27;85.12;95871.50;5044001;28;20417;-76
2022/01/08 01:18:24;;;;;;;;;;;;;;;0.24;85.58;95870.06;5054618;28;19956;-75
2022/01/08 01:20:50;;;;;;;;;;;;;;;0.22;85.70;95872.00;5065686;28;19995;-75
2022/01/08 01:23:21;;;;;;;;;;;;;;;0.21;85.76;95862.69;5055739;28;19963;-75
2022/01/08 01:25:54;;;;;;;;;;;;;;;0.18;85.63;95850.09;5051247;28;19957;-75
2022/01/08 01:49:18;;;;;;;;;;;;;;;0.02;91.57;95785.72;5058677;28;19965;-75
2022/01/08 01:51:44;;;;;;;;;;;;;;;0.02;92.64;95783.94;5050993;28;19986;-75
2022/01/08 01:54:10;;;;;;;;;;;;;;;0.05;93.27;95778.47;5059828;28;19982;-76
2022/01/08 01:56:36;;;;;;;;;;;;;;;0.07;94.08;95778.31;5059938;28;19976;-76
2022/01/08 01:59:03;;;;;;;;;;;;;;;0.09;94.33;95772.00;5041664;28;19968;-76
2022/01/08 02:01:29;;;;;;;;;;;;;;;0.12;95.62;95765.69;5062155;28;19960;-75
2022/01/08 02:03:55;;;;;;;;;;;;;;;0.15;95.74;95766.16;5056249;28;19963;-75
2022/01/08 02:06:21;;;;;;;;;;;;;;;0.20;95.59;95773.38;5052347;28;19965;-76
2022/01/08 02:08:47;;;;;;;;;;;;;;;0.22;95.61;95744.88;5055292;28;19963;-75
2022/01/08 02:11:15;;;;;;;;;;;;;;;0.26;95.18;95751.28;5057051;28;19975;-76
2022/01/08 02:13:41;;;;;;;;;;;;;;;0.28;94.95;95744.97;5043762;28;19958;-76
2022/01/08 02:16:16;;;;;;;;;;;;;;;0.30;94.44;95748.19;5046558;28;20423;-76
2022/01/08 02:18:43;;;;;;;;;;;;;;;0.34;93.81;95752.03;5051649;28;19966;-77
2022/01/08 02:21:09;;;;;;;;;;;;;;;0.37;93.83;95750.88;5059055;28;19966;-77
2022/01/08 02:23:35;;;;;;;;;;;;;;;0.39;93.57;95738.63;5052018;28;19956;-77
2022/01/08 02:26:04;;;;;;;;;;;;;;;0.42;93.38;95725.41;5048383;28;19966;-77
2022/01/08 02:28:30;;;;;;;;;;;;;;;0.43;93.43;95729.56;5049992;28;19969;-78
2022/01/08 02:30:56;;;;;;;;;;;;;;;0.44;93.51;95727.78;5066657;28;19979;-75
2022/01/08 02:33:26;;;;;;;;;;;;;;;0.43;94.16;95723.63;5055286;28;20336;-75
2022/01/08 02:35:52;;;;;;;;;;;;;;;0.41;94.51;95723.78;5045334;28;19966;-76
2022/01/08 02:38:18;;;;;;;;;;;;;;;0.40;95.12;95710.09;5049116;28;19980;-75
2022/01/08 02:40:52;;;;;;;;;;;;;;;0.39;95.43;95715.41;5057127;28;19960;-75
2022/01/08 02:43:17;;;;;;;;;;;;;;;0.34;96.19;95709.97;5063084;28;19967;-74
2022/01/08 02:45:43;;;;;;;;;;;;;;;0.32;96.77;95711.94;5062436;28;20040;-76
2022/01/08 02:48:09;;;;;;;;;;;;;;;0.29;97.32;95710.47;5048643;28;20474;-75
2022/01/08 02:50:35;;;;;;;;;;;;;;;0.28;98.75;95705.50;5053120;28;20447;-76
2022/01/08 02:53:01;;;;;;;;;;;;;;;0.25;98.70;95696.31;5047172;28;19974;-75
2022/01/08 02:55:27;;;;;;;;;;;;;;;0.25;99.15;95705.84;5048632;28;19974;-75
2022/01/08 02:57:53;;;;;;;;;;;;;;;0.25;99.28;95695.53;5034143;28;19988;-75
2022/01/08 03:00:20;;;;;;;;;;;;;;;0.24;99.38;95689.56;5055307;28;20380;-75
2022/01/08 03:02:47;;;;;;;;;;;;;;;0.22;100.00;95683.78;5058712;28;19969;-75
2022/01/08 03:05:13;;;;;;;;;;;;;;;0.23;100.00;95689.72;5046182;28;19962;-75
2022/01/08 03:07:40;;;;;;;;;;;;;;;0.23;100.00;95685.38;5045637;28;19982;-75
2022/01/08 03:10:07;;;;;;;;;;;;;;;0.22;100.00;95683.78;5066628;28;19963;-75
2022/01/08 03:12:32;;;;;;;;;;;;;;;0.20;100.00;95683.16;5047063;28;20469;-75
2022/01/08 03:14:59;;;;;;;;;;;;;;;0.17;100.00;95679.16;5051389;28;20054;-76
2022/01/08 03:17:25;;;;;;;;;;;;;;;0.17;100.00;95683.50;5058701;28;20457;-76
2022/01/08 03:19:52;;;;;;;;;;;;;;;0.17;100.00;95674.00;5052448;28;19970;-75
2022/01/08 03:22:19;;;;;;;;;;;;;;;0.19;100.00;95672.03;5036953;28;19969;-75
2022/01/08 03:24:45;;;;;;;;;;;;;;;0.19;100.00;95668.66;5049583;28;19964;-77
2022/01/08 03:27:11;;;;;;;;;;;;;;;0.20;100.00;95662.53;5056485;28;20311;-74
2022/01/08 03:29:37;;;;;;;;;;;;;;;0.18;100.00;95662.69;5058970;28;19957;-75
2022/01/08 03:32:03;;;;;;;;;;;;;;;0.19;100.00;95658.34;5050059;28;19976;-75
2022/01/08 03:34:29;;;;;;;;;;;;;;;0.19;100.00;95656.56;5046501;28;19984;-75
2022/01/08 03:36:55;;;;;;;;;;;;;;;0.20;100.00;95663.31;5049138;28;19994;-75
2022/01/08 03:39:22;;;;;;;;;;;;;;;0.19;100.00;95661.72;5061953;28;20413;-75
2022/01/08 03:41:48;;;;;;;;;;;;;;;0.19;100.00;95655.78;5050759;28;19971;-75
2022/01/08 03:44:14;;;;;;;;;;;;;;;0.18;100.00;95654.94;5050437;28;19964;-75
2022/01/08 03:46:40;;;;;;;;;;;;;;;0.21;100.00;95656.41;5051762;28;19973;-75
2022/01/08 03:49:23;;;;;;;;;;;;;;;0.22;100.00;95659.78;5052846;28;19966;-78
2022/01/08 03:51:49;;;;;;;;;;;;;;;0.27;100.00;95657.47;5063379;28;19986;-76
2022/01/08 03:54:15;;;;;;;;;;;;;;;0.29;100.00;95660.69;5058210;28;19967;-79
2022/01/08 03:56:41;;;;;;;;;;;;;;;0.30;100.00;95657.16;5058310;28;19962;-79
2022/01/08 03:59:07;;;;;;;;;;;;;;;0.32;100.00;95650.84;5067026;28;20309;-78
2022/01/08 04:01:33;;;;;;;;;;;;;;;0.35;100.00;95644.53;5067550;28;19970;-79
2022/01/08 04:03:59;;;;;;;;;;;;;;;0.36;100.00;95653.88;5047526;28;20450;-79
2022/01/08 04:06:25;;;;;;;;;;;;;;;0.40;100.00;95663.66;5053689;28;20016;-79
2022/01/08 04:08:56;;;;;;;;;;;;;;;0.41;100.00;95669.63;5055283;28;20048;-78
2022/01/08 04:11:23;;;;;;;;;;;;;;;0.42;100.00;95665.25;5059693;28;19974;-77
2022/01/08 04:13:49;;;;;;;;;;;;;;;0.42;100.00;95665.25;5044613;28;19965;-79
2022/01/08 04:16:20;;;;;;;;;;;;;;;0.42;100.00;95678.97;5059791;28;20412;-78
2022/01/08 04:18:46;;;;;;;;;;;;;;;0.42;100.00;95678.97;5041286;28;20429;-79
2022/01/08 04:23:53;;;;;;;;;;;;;;;0.45;100.00;95670.88;5074095;28;19961;-80
2022/01/08 04:26:21;;;;;;;;;;;;;;;0.46;99.22;95664.72;5055898;28;19970;-79
2022/01/08 04:28:48;;;;;;;;;;;;;;;0.46;99.86;95672.47;5047120;28;19965;-78
2022/01/08 04:31:14;;;;;;;;;;;;;;;0.45;99.71;95682.97;5049351;28;19969;-78
2022/01/08 04:33:40;;;;;;;;;;;;;;;0.43;99.61;95683.16;5039136;28;19969;-75
2022/01/08 04:36:05;;;;;;;;;;;;;;;0.39;99.91;95687.03;5052899;28;19967;-75
2022/01/08 04:38:32;;;;;;;;;;;;;;;0.37;99.87;95691.56;5055262;28;19962;-76
2022/01/08 04:40:58;;;;;;;;;;;;;;;0.34;99.05;95690.16;5057371;28;19963;-75
2022/01/08 04:43:24;;;;;;;;;;;;;;;0.33;100.00;95693.69;5055949;28;19958;-75
2022/01/08 04:45:51;;;;;;;;;;;;;;;0.30;100.00;95694.03;5044609;28;20412;-75
2022/01/08 04:48:17;;;;;;;;;;;;;;;0.27;99.93;95696.94;5052634;28;19961;-74
2022/01/08 04:50:43;;;;;;;;;;;;;;;0.25;100.00;95695.53;5067515;28;19997;-75
2022/01/08 04:53:10;;;;;;;;;;;;;;;0.23;100.00;95689.72;5035967;28;19983;-75
2022/01/08 04:55:36;;;;;;;;;;;;;;;0.22;100.00;95706.97;5060507;28;19982;-75
2022/01/08 04:58:03;;;;;;;;;;;;;;;0.22;100.00;95701.81;5048735;28;20324;-75
2022/01/08 05:00:30;;;;;;;;;;;;;;;0.23;100.00;95706.00;5048325;28;19960;-75
2022/01/08 05:02:56;;;;;;;;;;;;;;;0.24;100.00;95709.41;5047991;28;19962;-75
2022/01/08 05:05:22;;;;;;;;;;;;;;;0.29;100.00;95717.41;5055627;28;20007;-79
2022/01/08 05:07:48;;;;;;;;;;;;;;;0.32;99.93;95717.88;5061674;28;20356;-75
2022/01/08 05:10:14;;;;;;;;;;;;;;;0.35;99.64;95722.69;5024038;28;19955;-76
2022/01/08 05:12:40;;;;;;;;;;;;;;;0.40;99.10;95725.56;5027378;28;19989;-75
2022/01/08 05:15:06;;;;;;;;;;;;;;;0.46;98.91;95734.38;5054962;28;20325;-76
2022/01/08 05:17:35;;;;;;;;;;;;;;;0.50;98.49;95735.63;5059189;28;19974;-76
2022/01/08 05:20:03;;;;;;;;;;;;;;;0.55;98.11;95742.88;5049574;28;19955;-75
2022/01/08 05:22:40;;;;;;;;;;;;;;;0.59;97.67;95750.09;5052647;28;20349;-75
2022/01/08 05:25:06;;;;;;;;;;;;;;;0.59;97.63;95750.09;5061558;28;20418;-75
2022/01/08 05:27:32;;;;;;;;;;;;;;;0.59;98.41;95754.47;5057785;28;19968;-78
2022/01/08 05:29:58;;;;;;;;;;;;;;;0.59;98.99;95763.00;5059968;28;20351;-78
2022/01/08 05:32:23;;;;;;;;;;;;;;;0.58;99.42;95773.47;5059104;28;20080;-77
2022/01/08 05:34:50;;;;;;;;;;;;;;;0.59;99.81;95781.06;5045079;28;20429;-77
2022/01/08 05:37:17;;;;;;;;;;;;;;;0.58;99.91;95779.44;5054216;28;19969;-78
2022/01/08 05:39:45;;;;;;;;;;;;;;;0.60;100.00;95792.16;5062343;28;19960;-77
2022/01/08 05:42:11;;;;;;;;;;;;;;;0.61;100.00;95796.38;5053817;28;19958;-78
2022/01/08 05:44:37;;;;;;;;;;;;;;;0.61;99.16;95806.69;5058276;28;19994;-78
2022/01/08 05:47:03;;;;;;;;;;;;;;;0.61;99.64;95798.97;5055768;28;19965;-77
2022/01/08 05:49:29;;;;;;;;;;;;;;;0.62;99.85;95816.03;5048613;28;20413;-77
2022/01/08 05:51:55;;;;;;;;;;;;;;;0.63;99.47;95814.25;5048310;28;20023;-77
2022/01/08 05:54:21;;;;;;;;;;;;;;;0.63;99.18;95833.13;5063736;28;20418;-77
2022/01/08 05:56:49;;;;;;;;;;;;;;;0.63;99.77;95851.19;5046634;28;20053;-77
2022/01/08 05:59:15;;;;;;;;;;;;;;;0.63;99.04;95851.19;5052863;28;20346;-79
2022/01/08 06:01:40;;;;;;;;;;;;;;;0.63;99.55;95855.53;5052199;28;19966;-78
2022/01/08 06:04:06;;;;;;;;;;;;;;;0.59;98.09;95860.25;5065674;28;19958;-76
2022/01/08 06:06:32;;;;;;;;;;;;;;;0.57;97.45;95870.72;5065838;28;20413;-78
2022/01/08 06:08:58;;;;;;;;;;;;;;;0.54;96.26;95883.16;5037870;28;19963;-78
2022/01/08 06:11:24;;;;;;;;;;;;;;;0.50;96.63;95890.41;5049717;28;20002;-78
2022/01/08 06:13:50;;;;;;;;;;;;;;;0.47;94.92;95880.44;5042669;28;20451;-78
2022/01/08 06:16:16;;;;;;;;;;;;;;;0.47;95.30;95924.31;5064094;28;19968;-80
2022/01/08 06:18:42;;;;;;;;;;;;;;;0.45;95.04;95921.09;5055530;28;20004;-78
2022/01/08 06:21:07;;;;;;;;;;;;;;;0.43;94.81;95935.13;5029767;28;19956;-79
2022/01/08 06:23:33;;;;;;;;;;;;;;;0.39;95.06;95950.13;5060336;28;19965;-78
2022/01/08 06:25:59;;;;;;;;;;;;;;;0.35;94.11;95954.81;5062003;28;19998;-78
2022/01/08 06:28:25;;;;;;;;;;;;;;;0.33;93.83;95961.91;5059795;28;20059;-78
2022/01/08 06:30:53;;;;;;;;;;;;;;;0.28;94.12;95977.06;5037637;28;20368;-79
2022/01/08 06:33:19;;;;;;;;;;;;;;;0.26;92.08;95979.00;5021493;28;19982;-78
2022/01/08 06:35:45;;;;;;;;;;;;;;;0.26;92.50;95988.53;5063128;28;19962;-78
2022/01/08 06:38:10;;;;;;;;;;;;;;;0.26;92.16;96009.16;5050662;28;19955;-78
2022/01/08 06:40:36;;;;;;;;;;;;;;;0.27;92.89;96013.34;5049802;28;19962;-75
2022/01/08 06:43:03;;;;;;;;;;;;;;;0.26;92.40;96012.53;5046570;28;19959;-77
2022/01/08 06:45:28;;;;;;;;;;;;;;;0.25;92.63;96007.53;5034059;28;20422;-78
2022/01/08 06:47:54;;;;;;;;;;;;;;;0.25;92.54;96026.38;5053955;28;20016;-79
2022/01/08 06:50:21;;;;;;;;;;;;;;;0.24;91.95;96032.53;5072605;28;19983;-77
2022/01/08 06:52:46;;;;;;;;;;;;;;;0.18;91.38;96031.38;5060847;28;19984;-75
2022/01/08 06:55:12;;;;;;;;;;;;;;;0.21;92.07;96048.34;5073068;28;19971;-78
2022/01/08 06:57:39;;;;;;;;;;;;;;;0.21;90.62;96056.06;5046577;28;20458;-78
2022/01/08 07:00:05;;;;;;;;;;;;;;;0.18;90.42;96062.34;5049704;28;19966;-78
2022/01/08 07:02:31;;;;;;;;;;;;;;;0.19;91.48;96069.13;5046330;28;19972;-76
2022/01/08 07:04:57;;;;;;;;;;;;;;;0.20;92.26;96080.22;5059851;28;19979;-77
2022/01/08 07:07:23;;;;;;;;;;;;;;;0.15;91.31;96083.31;5054608;28;19955;-75
2022/01/08 07:09:49;;;;;;;;;;;;;;;0.15;91.00;96082.50;5042431;28;19977;-76
2022/01/08 07:12:15;;;;;;;;;;;;;;;0.12;90.17;96077.66;5048914;28;19975;-76
2022/01/08 07:14:40;;;;;;;;;;;;;;;0.11;91.60;96094.09;5057251;28;19979;-76
2022/01/08 07:17:06;;;;;;;;;;;;;;;0.10;91.27;96095.06;5055434;28;19964;-77
2022/01/08 07:19:32;;;;;;;;;;;;;;;0.09;91.04;96093.47;5044439;28;20010;-77
2022/01/08 07:22:00;;;;;;;;;;;;;;;0.10;90.52;96102.78;5064379;28;20067;-77
2022/01/08 07:24:26;;;;;;;;;;;;;;;0.08;90.98;96102.94;5061813;28;19977;-76
2022/01/08 07:26:51;;;;;;;;;;;;;;;0.08;91.31;96115.84;5056464;28;19996;-76
2022/01/08 07:29:17;;;;;;;;;;;;;;;0.05;91.55;96129.06;5050786;28;19955;-77
2022/01/08 07:31:43;;;;;;;;;;;;;;;0.06;91.25;96147.91;5056982;28;19966;-76
2022/01/08 07:34:09;;;;;;;;;;;;;;;0.06;90.94;96145.31;5056597;28;20326;-77
2022/01/08 07:36:35;;;;;;;;;;;;;;;0.01;91.80;96163.06;5052120;28;20018;-76
2022/01/08 07:39:01;;;;;;;;;;;;;;;-0.04;93.35;96173.84;5056970;28;20038;-76
2022/01/08 07:41:27;;;;;;;;;;;;;;;-0.06;94.53;96184.31;5053914;28;19968;-76
2022/01/08 07:43:54;;;;;;;;;;;;;;;-0.10;94.77;96190.75;5056338;28;20058;-75
2022/01/08 07:46:20;;;;;;;;;;;;;;;-0.13;95.29;96201.34;5055642;28;19972;-76
2022/01/08 07:48:46;;;;;;;;;;;;;;;-0.16;96.08;96203.44;5055698;28;19971;-76
2022/01/08 07:51:12;;;;;;;;;;;;;;;-0.17;96.56;96204.41;5049782;28;20045;-76
2022/01/08 07:53:38;;;;;;;;;;;;;;;-0.15;96.36;96215.34;5049868;28;20346;-75
2022/01/08 07:56:04;;;;;;;;;;;;;;;-0.10;96.88;96224.25;5058865;28;19963;-76
2022/01/08 07:58:30;;;;;;;;;;;;;;;-0.07;96.28;96229.06;5048834;28;19963;-76
2022/01/08 08:00:57;;;;;;;;;;;;;;;-0.03;96.70;96230.38;5059052;28;19966;-76
2022/01/08 08:03:23;;;;;;;;;;;;;;;0.02;96.25;96234.25;5063241;28;19965;-76
2022/01/08 08:05:50;;;;;;;;;;;;;;;0.06;95.89;96235.56;5046030;28;20331;-75
2022/01/08 08:08:16;;;;;;;;;;;;;;;0.08;95.32;96238.78;5062472;28;20332;-76
2022/01/08 08:10:43;;;;;;;;;;;;;;;0.06;95.03;96244.09;5056369;28;19969;-76
2022/01/08 08:13:09;;;;;;;;;;;;;;;0.06;94.74;96249.25;5036871;28;20331;-75
2022/01/08 08:15:35;;;;;;;;;;;;;;;0.06;94.41;96256.19;5052837;28;19985;-76
2022/01/08 08:18:01;;;;;;;;;;;;;;;0.08;93.70;96249.91;5049325;28;20411;-76
2022/01/08 08:20:27;;;;;;;;;;;;;;;0.08;92.69;96254.25;5058224;28;19965;-76
2022/01/08 08:22:53;;;;;;;;;;;;;;;0.09;92.00;96259.25;5056859;28;20415;-76
2022/01/08 08:25:19;;;;;;;;;;;;;;;0.28;91.64;96250.44;5058886;28;20355;-76
2022/01/08 08:27:45;;;;;;;;;;;;;;;0.61;89.38;96255.66;5068769;28;19966;-77
2022/01/08 08:30:11;;;;;;;;;;;;;;;0.98;87.63;96259.53;5046988;28;19954;-77
2022/01/08 08:32:37;;;;;;;;;;;;;;;1.35;85.63;96263.38;5037705;28;19978;-77
2022/01/08 08:35:03;;;;;;;;;;;;;;;1.66;84.61;96262.63;5057769;28;19999;-77
2022/01/08 08:37:29;;;;;;;;;;;;;;;1.97;83.61;96271.25;5056882;28;19970;-76
2022/01/08 08:39:55;;;;;;;;;;;;;;;2.26;82.49;96269.81;5053334;28;19975;-76
2022/01/08 08:42:21;;;;;;;;;;;;;;;2.43;79.95;96275.72;5057755;28;20337;-77
2022/01/08 08:44:47;;;;;;;;;;;;;;;2.51;81.33;96280.84;5061199;28;19972;-77
2022/01/08 08:47:13;;;;;;;;;;;;;;;2.60;81.55;96282.44;5057480;28;20008;-77
2022/01/08 08:49:38;;;;;;;;;;;;;;;2.70;77.90;96289.16;5050842;28;20407;-77
2022/01/08 08:52:05;;;;;;;;;;;;;;;2.68;76.74;96284.13;5051676;28;19982;-77
2022/01/08 08:54:30;;;;;;;;;;;;;;;2.72;78.44;96285.41;5051307;28;20463;-76
2022/01/08 08:56:57;;;;;;;;;;;;;;;2.82;78.39;96305.91;5056199;28;19997;-76
2022/01/08 08:59:24;;;;;;;;;;;;;;;2.91;76.75;96301.47;5046064;28;19965;-78
2022/01/08 09:01:50;;;;;;;;;;;;;;;2.88;76.38;96309.56;5058948;28;19965;-77
2022/01/08 09:04:16;;;;;;;;;;;;;;;3.01;77.87;96309.81;5059685;28;19965;-77
2022/01/08 09:06:42;;;;;;;;;;;;;;;3.10;76.62;96318.31;5063183;28;19969;-77
2022/01/08 09:09:08;;;;;;;;;;;;;;;3.09;76.01;96317.53;5058934;28;20059;-77
2022/01/08 09:11:34;;;;;;;;;;;;;;;2.89;77.39;96337.09;5065026;28;19972;-77
2022/01/08 09:14:00;;;;;;;;;;;;;;;2.67;78.76;96338.66;5068431;28;19994;-78
2022/01/08 09:16:27;;;;;;;;;;;;;;;2.43;76.88;96350.78;5026245;28;19956;-77
2022/01/08 09:18:53;;;;;;;;;;;;;;;2.24;79.08;96350.19;5055233;28;20497;-77
2022/01/08 09:21:19;;;;;;;;;;;;;;;2.11;79.53;96346.53;5039758;28;19968;-77
2022/01/08 09:23:45;;;;;;;;;;;;;;;2.05;80.98;96353.19;5061697;28;19960;-78
2022/01/08 09:26:11;;;;;;;;;;;;;;;2.05;81.08;96362.72;5056621;28;20059;-77
2022/01/08 09:28:38;;;;;;;;;;;;;;;1.98;79.73;96365.97;5046867;28;19958;-77
2022/01/08 09:31:04;;;;;;;;;;;;;;;1.90;80.85;96368.56;5053390;28;19960;-77
2022/01/08 09:33:31;;;;;;;;;;;;;;;1.92;81.68;96361.47;5056442;28;19984;-77
2022/01/08 09:35:57;;;;;;;;;;;;;;;1.91;80.59;96357.28;5058620;28;19961;-77
2022/01/08 09:38:23;;;;;;;;;;;;;;;1.97;81.49;96364.34;5049099;28;19964;-78
2022/01/08 09:40:50;;;;;;;;;;;;;;;1.95;78.41;96358.56;5055332;28;20368;-78
2022/01/08 09:43:16;;;;;;;;;;;;;;;1.87;80.78;96365.50;5033714;28;19962;-76
2022/01/08 09:45:43;;;;;;;;;;;;;;;1.77;80.32;96360.53;5054009;28;20409;-77
2022/01/08 09:48:09;;;;;;;;;;;;;;;1.68;79.86;96362.34;5066178;28;19964;-77
2022/01/08 09:50:35;;;;;;;;;;;;;;;1.66;82.42;96363.44;5053048;28;20035;-77
2022/01/08 09:53:01;;;;;;;;;;;;;;;1.62;81.45;96363.78;5046404;28;19982;-76
2022/01/08 09:55:28;;;;;;;;;;;;;;;1.57;80.34;96355.69;5044979;28;20386;-76
2022/01/08 09:57:54;;;;;;;;;;;;;;;1.56;80.85;96358.47;5037975;28;19961;-76
2022/01/08 10:00:21;;;;;;;;;;;;;;;1.52;80.37;96364.94;5054272;28;19959;-77
2022/01/08 10:02:47;;;;;;;;;;;;;;;1.51;79.41;96365.88;5055415;28;19959;-77
2022/01/08 10:05:17;;;;;;;;;;;;;;;1.46;78.60;96361.22;5060868;28;20435;-76
2022/01/08 10:07:55;;;;;;;;;;;;;;;1.40;79.98;96365.25;5020448;28;19970;-76
2022/01/08 10:10:21;;;;;;;;;;;;;;;1.43;79.38;96369.31;5056049;28;19965;-76
2022/01/08 10:12:57;;;;;;;;;;;;;;;1.37;78.54;96375.13;5041233;28;19974;-76
2022/01/08 10:18:25;;;;;;;;;;;;;;;1.29;79.77;96383.66;5025468;28;20312;-76
2022/01/08 10:20:52;;;;;;;;;;;;;;;1.20;77.54;96374.31;5056983;28;19968;-75
2022/01/08 10:23:19;;;;;;;;;;;;;;;1.19;80.13;96383.00;5069619;28;19951;-76
2022/01/08 10:25:56;;;;;;;;;;;;;;;1.16;80.00;96371.22;5057852;28;19968;-75
2022/01/08 10:28:42;;;;;;;;;;;;;;;1.14;76.85;96368.00;5057983;28;19977;-75
2022/01/08 10:31:12;;;;;;;;;;;;;;;1.16;79.05;96378.16;5059549;28;19975;-75
2022/01/08 10:33:39;;;;;;;;;;;;;;;1.18;79.43;96384.00;5048069;28;19994;-75
2022/01/08 10:36:06;;;;;;;;;;;;;;;1.32;81.32;96385.09;5040558;28;19966;-76
2022/01/08 10:38:32;;;;;;;;;;;;;;;1.56;80.76;96368.81;5060552;28;19959;-76
2022/01/08 10:40:59;;;;;;;;;;;;;;;1.69;79.39;96361.34;5048614;28;20428;-76
2022/01/08 10:43:29;;;;;;;;;;;;;;;1.75;76.98;96352.13;5055460;28;19975;-76
2022/01/08 10:45:55;;;;;;;;;;;;;;;1.87;77.17;96353.41;5054392;28;19961;-76
2022/01/08 10:48:28;;;;;;;;;;;;;;;2.08;77.54;96350.28;5057985;28;19964;-75
2022/01/08 10:51:06;;;;;;;;;;;;;;;2.35;75.96;96356.81;5061557;28;19983;-77
2022/01/08 10:53:51;;;;;;;;;;;;;;;2.47;75.64;96351.25;5054287;28;19977;-76
2022/01/08 10:56:37;;;;;;;;;;;;;;;2.42;75.35;96355.16;5037436;28;19971;-77
2022/01/08 10:59:07;;;;;;;;;;;;;;;2.31;76.75;96352.13;5034078;28;19962;-78
2022/01/08 11:01:42;;;;;;;;;;;;;;;2.21;77.35;96360.91;5039267;28;20435;-77
2022/01/08 11:04:11;;;;;;;;;;;;;;;2.13;76.41;96350.56;5058282;28;20043;-77
2022/01/08 11:06:49;;;;;;;;;;;;;;;2.01;76.94;96357.88;5058115;28;19963;-76
2022/01/08 11:09:15;;;;;;;;;;;;;;;1.94;76.95;96349.19;5033959;28;19966;-77
2022/01/08 11:11:42;;;;;;;;;;;;;;;1.88;77.88;96356.78;5057914;28;20366;-77
2022/01/08 11:14:11;;;;;;;;;;;;;;;1.82;78.73;96359.06;5054849;28;19969;-76
2022/01/08 11:16:37;;;;;;;;;;;;;;;1.80;86.71;96348.06;5044116;28;19980;-78
2022/01/08 11:19:03;;;;;;;;;;;;;;;2.29;98.86;96334.19;5072951;28;19963;-79
2022/01/08 11:21:30;;;;;;;;;;;;;;;2.88;90.55;96343.25;5031556;28;19972;-76
2022/01/08 11:24:00;;;;;;;;;;;;;;;2.88;76.21;96330.28;5064219;28;19979;-76
2022/01/08 11:26:27;;;;;;;;;;;;;;;2.68;76.60;96327.34;5077950;28;19971;-76
2022/01/08 11:28:55;;;;;;;;;;;;;;;2.53;76.78;96327.28;5045577;28;19964;-76
2022/01/08 11:31:22;;;;;;;;;;;;;;;2.32;76.05;96323.50;5054547;28;19955;-75
2022/01/08 11:33:54;;;;;;;;;;;;;;;2.21;77.17;96331.63;5048003;28;19992;-76
2022/01/08 11:36:21;;;;;;;;;;;;;;;2.16;78.93;96331.31;5060325;28;20330;-77
2022/01/08 11:38:48;;;;;;;;;;;;;;;2.06;76.32;96322.94;5047560;28;19959;-76
2022/01/08 11:41:15;;;;;;;;;;;;;;;2.03;77.41;96317.13;5045885;28;19963;-77
2022/01/08 11:43:41;;;;;;;;;;;;;;;1.96;76.34;96318.78;5045072;28;19956;-76
2022/01/08 11:46:09;;;;;;;;;;;;;;;1.94;76.53;96317.34;5047309;28;19967;-76
2022/01/08 11:48:38;;;;;;;;;;;;;;;1.97;78.05;96309.25;5047223;28;19962;-76
2022/01/08 11:51:06;;;;;;;;;;;;;;;2.00;77.58;96303.75;5057011;28;19989;-76
2022/01/08 11:53:33;;;;;;;;;;;;;;;2.00;75.62;96294.19;5052759;28;19998;-77
2022/01/08 11:56:06;;;;;;;;;;;;;;;1.98;78.14;96285.81;5042114;28;20450;-77
2022/01/08 11:58:33;;;;;;;;;;;;;;;1.93;77.33;96282.94;5049572;28;19956;-76
2022/01/08 12:01:00;;;;;;;;;;;;;;;1.89;78.57;96279.06;5056131;28;19968;-76
2022/01/08 12:03:39;;;;;;;;;;;;;;;1.92;79.46;96276.13;5052830;28;19965;-77
2022/01/08 12:06:31;;;;;;;;;;;;;;;2.18;89.50;96272.44;5061753;28;20425;-76
2022/01/08 12:09:26;;;;;;;;;;;;;;;2.72;80.27;96259.50;5062112;28;19964;-76
2022/01/08 12:11:52;;;;;;;;;;;;;;;2.87;76.24;96251.00;5067137;28;19958;-75
2022/01/08 12:14:19;;;;;;;;;;;;;;;2.86;75.96;96255.38;5055091;28;19969;-76
2022/01/08 12:16:46;;;;;;;;;;;;;;;2.82;75.60;96252.31;5046940;28;20344;-75
2022/01/08 12:19:29;;;;;;;;;;;;;;;2.72;75.06;96251.75;5069874;28;19966;-76
2022/01/08 12:21:55;;;;;;;;;;;;;;;2.58;75.49;96245.56;5056760;28;19969;-77
2022/01/08 12:24:24;;;;;;;;;;;;;;;2.47;75.35;96237.38;5059565;28;19965;-76
2022/01/08 12:26:50;;;;;;;;;;;;;;;2.32;74.71;96238.09;5051550;28;19960;-76
2022/01/08 12:29:36;;;;;;;;;;;;;;;2.20;75.82;96234.28;5063683;28;19965;-76
2022/01/08 12:32:21;;;;;;;;;;;;;;;2.42;90.16;96230.91;5055999;28;19984;-76
2022/01/08 12:34:51;;;;;;;;;;;;;;;3.33;86.77;96219.81;5070548;28;20425;-76
2022/01/08 12:37:18;;;;;;;;;;;;;;;3.55;72.65;96192.19;5049389;28;19968;-77
2022/01/08 12:39:44;;;;;;;;;;;;;;;3.35;72.82;96203.09;5056419;28;19956;-77
2022/01/08 12:42:30;;;;;;;;;;;;;;;2.94;70.93;96198.34;5058898;28;20012;-77
2022/01/08 12:44:56;;;;;;;;;;;;;;;2.69;72.23;96197.72;5061668;28;19966;-77
2022/01/08 12:47:36;;;;;;;;;;;;;;;2.55;74.54;96201.88;5053867;28;19964;-77
2022/01/08 12:50:21;;;;;;;;;;;;;;;2.46;74.67;96191.75;5053393;28;20403;-77
2022/01/08 12:53:11;;;;;;;;;;;;;;;2.43;73.77;96177.38;5040911;28;21368;-76
2022/01/08 12:55:42;;;;;;;;;;;;;;;2.22;72.71;96171.03;5048370;28;19966;-76
2022/01/08 12:58:31;;;;;;;;;;;;;;;2.19;73.80;96162.84;5059342;28;19957;-76
2022/01/08 13:01:00;;;;;;;;;;;;;;;2.14;75.26;96162.53;5035000;28;20353;-76
2022/01/08 13:03:30;;;;;;;;;;;;;;;2.14;75.44;96157.34;5051521;28;19969;-76
2022/01/08 13:06:04;;;;;;;;;;;;;;;2.18;75.94;96150.88;5059524;28;19962;-77
2022/01/08 13:08:34;;;;;;;;;;;;;;;2.21;76.62;96143.56;5057951;28;20423;-76
2022/01/08 13:11:01;;;;;;;;;;;;;;;2.21;76.29;96132.44;5061016;28;19961;-76
2022/01/08 13:13:40;;;;;;;;;;;;;;;2.21;75.70;96117.69;5044404;28;19976;-76
2022/01/08 13:16:12;;;;;;;;;;;;;;;2.19;75.39;96124.03;5051778;28;19962;-76
2022/01/08 13:18:38;;;;;;;;;;;;;;;2.11;73.79;96104.19;5056769;28;19961;-76
2022/01/08 13:21:05;;;;;;;;;;;;;;;2.06;75.33;96108.25;5057027;28;19967;-76
2022/01/08 13:23:32;;;;;;;;;;;;;;;2.08;75.79;96109.72;5058993;28;19958;-76